sensor_id;sensor_type;location;lat;lon;timestamp;P1;durP1;ratioP1;P2;durP2;ratioP2
77384;SDS011;66443;49.122;8.346;2023-07-13T00:01:57;1.43;;;1.27;;
77384;SDS011;66443;49.122;8.346;2023-07-13T00:04:23;2.37;;;1.70;;
77384;SDS011;66443;49.122;8.346;2023-07-13T00:06:50;3.47;;;1.40;;
77384;SDS011;66443;49.122;8.346;2023-07-13T00:09:15;5.00;;;1.50;;
77384;SDS011;66443;49.122;8.346;2023-07-13T00:11:41;2.37;;;1.50;;
77384;SDS011;66443;49.122;8.346;2023-07-13T00:14:07;2.50;;;1.20;;
77384;SDS011;66443;49.122;8.346;2023-07-13T00:16:33;2.07;;;1.47;;
77384;SDS011;66443;49.122;8.346;2023-07-13T00:18:59;4.10;;;1.20;;
77384;SDS011;66443;49.122;8.346;2023-07-13T00:21:25;2.67;;;1.43;;
77384;SDS011;66443;49.122;8.346;2023-07-13T00:23:50;1.60;;;1.50;;
77384;SDS011;66443;49.122;8.346;2023-07-13T00:26:15;7.77;;;1.23;;
77384;SDS011;66443;49.122;8.346;2023-07-13T00:28:42;4.33;;;1.30;;
77384;SDS011;66443;49.122;8.346;2023-07-13T00:31:08;2.33;;;1.07;;
77384;SDS011;66443;49.122;8.346;2023-07-13T00:33:33;2.43;;;1.27;;
77384;SDS011;66443;49.122;8.346;2023-07-13T00:35:59;2.63;;;1.80;;
77384;SDS011;66443;49.122;8.346;2023-07-13T00:38:24;2.23;;;1.40;;
77384;SDS011;66443;49.122;8.346;2023-07-13T00:40:49;3.10;;;1.47;;
77384;SDS011;66443;49.122;8.346;2023-07-13T00:43:15;2.47;;;1.27;;
77384;SDS011;66443;49.122;8.346;2023-07-13T00:48:13;1.30;;;1.20;;
77384;SDS011;66443;49.122;8.346;2023-07-13T00:50:39;5.27;;;1.30;;
77384;SDS011;66443;49.122;8.346;2023-07-13T00:53:05;3.63;;;1.63;;
77384;SDS011;66443;49.122;8.346;2023-07-13T00:55:30;2.23;;;1.30;;
77384;SDS011;66443;49.122;8.346;2023-07-13T00:57:56;2.53;;;1.50;;
77384;SDS011;66443;49.122;8.346;2023-07-13T01:00:21;2.03;;;1.50;;
77384;SDS011;66443;49.122;8.346;2023-07-13T01:02:47;2.07;;;1.50;;
77384;SDS011;66443;49.122;8.346;2023-07-13T01:05:14;1.70;;;1.53;;
77384;SDS011;66443;49.122;8.346;2023-07-13T01:07:40;2.40;;;1.43;;
77384;SDS011;66443;49.122;8.346;2023-07-13T01:10:06;2.27;;;1.30;;
77384;SDS011;66443;49.122;8.346;2023-07-13T01:12:31;1.73;;;1.60;;
77384;SDS011;66443;49.122;8.346;2023-07-13T01:14:57;2.80;;;1.40;;
77384;SDS011;66443;49.122;8.346;2023-07-13T01:17:23;1.73;;;1.30;;
77384;SDS011;66443;49.122;8.346;2023-07-13T01:19:48;2.77;;;1.50;;
77384;SDS011;66443;49.122;8.346;2023-07-13T01:22:14;2.23;;;1.63;;
77384;SDS011;66443;49.122;8.346;2023-07-13T01:24:41;6.03;;;1.80;;
77384;SDS011;66443;49.122;8.346;2023-07-13T01:27:08;1.77;;;1.67;;
77384;SDS011;66443;49.122;8.346;2023-07-13T01:29:34;2.17;;;1.50;;
77384;SDS011;66443;49.122;8.346;2023-07-13T01:31:59;3.13;;;1.60;;
77384;SDS011;66443;49.122;8.346;2023-07-13T01:34:25;4.40;;;1.40;;
77384;SDS011;66443;49.122;8.346;2023-07-13T01:36:50;1.93;;;1.60;;
77384;SDS011;66443;49.122;8.346;2023-07-13T01:39:18;4.10;;;1.60;;
77384;SDS011;66443;49.122;8.346;2023-07-13T01:41:43;3.37;;;1.63;;
77384;SDS011;66443;49.122;8.346;2023-07-13T01:44:08;2.23;;;1.60;;
77384;SDS011;66443;49.122;8.346;2023-07-13T01:46:34;2.43;;;1.43;;
77384;SDS011;66443;49.122;8.346;2023-07-13T01:48:59;1.73;;;1.50;;
77384;SDS011;66443;49.122;8.346;2023-07-13T01:51:24;1.50;;;1.40;;
77384;SDS011;66443;49.122;8.346;2023-07-13T01:53:49;2.20;;;2.00;;
77384;SDS011;66443;49.122;8.346;2023-07-13T01:56:15;3.23;;;1.53;;
77384;SDS011;66443;49.122;8.346;2023-07-13T01:58:40;2.57;;;1.60;;
77384;SDS011;66443;49.122;8.346;2023-07-13T02:01:05;2.80;;;1.30;;
77384;SDS011;66443;49.122;8.346;2023-07-13T02:03:30;2.30;;;2.07;;
77384;SDS011;66443;49.122;8.346;2023-07-13T02:05:55;2.10;;;1.93;;
77384;SDS011;66443;49.122;8.346;2023-07-13T02:08:20;1.60;;;1.50;;
77384;SDS011;66443;49.122;8.346;2023-07-13T02:10:46;3.80;;;1.70;;
77384;SDS011;66443;49.122;8.346;2023-07-13T02:13:11;2.23;;;1.70;;
77384;SDS011;66443;49.122;8.346;2023-07-13T02:15:38;1.80;;;1.70;;
77384;SDS011;66443;49.122;8.346;2023-07-13T02:18:03;2.63;;;1.67;;
77384;SDS011;66443;49.122;8.346;2023-07-13T02:20:28;2.20;;;1.73;;
77384;SDS011;66443;49.122;8.346;2023-07-13T02:22:54;2.33;;;2.13;;
77384;SDS011;66443;49.122;8.346;2023-07-13T02:25:19;2.40;;;2.20;;
77384;SDS011;66443;49.122;8.346;2023-07-13T02:27:44;2.23;;;1.40;;
77384;SDS011;66443;49.122;8.346;2023-07-13T02:30:10;3.03;;;1.90;;
77384;SDS011;66443;49.122;8.346;2023-07-13T02:32:35;3.23;;;2.00;;
77384;SDS011;66443;49.122;8.346;2023-07-13T02:35:00;2.57;;;2.37;;
77384;SDS011;66443;49.122;8.346;2023-07-13T02:37:26;3.10;;;2.83;;
77384;SDS011;66443;49.122;8.346;2023-07-13T02:39:51;5.13;;;3.80;;
77384;SDS011;66443;49.122;8.346;2023-07-13T02:42:16;3.20;;;2.90;;
77384;SDS011;66443;49.122;8.346;2023-07-13T02:44:41;5.00;;;2.90;;
77384;SDS011;66443;49.122;8.346;2023-07-13T02:47:06;4.83;;;2.10;;
77384;SDS011;66443;49.122;8.346;2023-07-13T02:49:32;2.43;;;2.23;;
77384;SDS011;66443;49.122;8.346;2023-07-13T02:51:57;2.60;;;2.40;;
77384;SDS011;66443;49.122;8.346;2023-07-13T02:54:22;3.13;;;2.90;;
77384;SDS011;66443;49.122;8.346;2023-07-13T02:56:47;3.50;;;2.67;;
77384;SDS011;66443;49.122;8.346;2023-07-13T02:59:12;3.00;;;2.70;;
77384;SDS011;66443;49.122;8.346;2023-07-13T03:01:38;5.40;;;3.63;;
77384;SDS011;66443;49.122;8.346;2023-07-13T03:04:03;3.10;;;2.80;;
77384;SDS011;66443;49.122;8.346;2023-07-13T03:06:28;3.60;;;2.20;;
77384;SDS011;66443;49.122;8.346;2023-07-13T03:08:55;3.83;;;2.40;;
77384;SDS011;66443;49.122;8.346;2023-07-13T03:11:21;2.40;;;2.20;;
77384;SDS011;66443;49.122;8.346;2023-07-13T03:13:46;3.60;;;2.30;;
77384;SDS011;66443;49.122;8.346;2023-07-13T03:16:11;3.50;;;2.17;;
77384;SDS011;66443;49.122;8.346;2023-07-13T03:18:37;2.30;;;2.20;;
77384;SDS011;66443;49.122;8.346;2023-07-13T03:21:03;3.37;;;2.20;;
77384;SDS011;66443;49.122;8.346;2023-07-13T03:23:28;2.20;;;2.00;;
77384;SDS011;66443;49.122;8.346;2023-07-13T03:26:10;2.83;;;1.97;;
77384;SDS011;66443;49.122;8.346;2023-07-13T03:28:36;2.70;;;2.07;;
77384;SDS011;66443;49.122;8.346;2023-07-13T03:31:02;2.33;;;2.00;;
77384;SDS011;66443;49.122;8.346;2023-07-13T03:33:27;7.57;;;2.00;;
77384;SDS011;66443;49.122;8.346;2023-07-13T03:35:53;3.93;;;2.10;;
77384;SDS011;66443;49.122;8.346;2023-07-13T03:38:18;3.13;;;2.80;;
77384;SDS011;66443;49.122;8.346;2023-07-13T03:40:44;2.57;;;2.20;;
77384;SDS011;66443;49.122;8.346;2023-07-13T03:43:09;3.33;;;2.63;;
77384;SDS011;66443;49.122;8.346;2023-07-13T03:45:34;3.73;;;2.70;;
77384;SDS011;66443;49.122;8.346;2023-07-13T03:48:02;3.23;;;2.43;;
77384;SDS011;66443;49.122;8.346;2023-07-13T03:50:27;2.50;;;2.30;;
77384;SDS011;66443;49.122;8.346;2023-07-13T03:52:52;5.07;;;2.47;;
77384;SDS011;66443;49.122;8.346;2023-07-13T03:55:18;3.03;;;2.73;;
77384;SDS011;66443;49.122;8.346;2023-07-13T03:57:43;3.27;;;2.97;;
77384;SDS011;66443;49.122;8.346;2023-07-13T04:00:08;2.40;;;2.30;;
77384;SDS011;66443;49.122;8.346;2023-07-13T04:02:34;4.20;;;2.60;;
77384;SDS011;66443;49.122;8.346;2023-07-13T04:04:59;4.00;;;2.73;;
77384;SDS011;66443;49.122;8.346;2023-07-13T04:07:24;3.10;;;2.60;;
77384;SDS011;66443;49.122;8.346;2023-07-13T04:09:49;4.07;;;2.20;;
77384;SDS011;66443;49.122;8.346;2023-07-13T04:12:15;3.17;;;2.70;;
77384;SDS011;66443;49.122;8.346;2023-07-13T04:14:40;2.80;;;2.20;;
77384;SDS011;66443;49.122;8.346;2023-07-13T04:17:05;3.80;;;2.63;;
77384;SDS011;66443;49.122;8.346;2023-07-13T04:19:30;2.97;;;2.40;;
77384;SDS011;66443;49.122;8.346;2023-07-13T04:21:55;3.30;;;2.20;;
77384;SDS011;66443;49.122;8.346;2023-07-13T04:24:20;5.90;;;2.33;;
77384;SDS011;66443;49.122;8.346;2023-07-13T04:26:46;3.33;;;2.03;;
77384;SDS011;66443;49.122;8.346;2023-07-13T04:29:11;4.53;;;2.67;;
77384;SDS011;66443;49.122;8.346;2023-07-13T04:31:36;2.53;;;2.33;;
77384;SDS011;66443;49.122;8.346;2023-07-13T04:34:01;4.60;;;2.47;;
77384;SDS011;66443;49.122;8.346;2023-07-13T04:36:28;3.60;;;2.17;;
77384;SDS011;66443;49.122;8.346;2023-07-13T04:38:53;4.90;;;2.60;;
77384;SDS011;66443;49.122;8.346;2023-07-13T04:41:19;3.97;;;2.13;;
77384;SDS011;66443;49.122;8.346;2023-07-13T04:43:44;5.37;;;3.00;;
77384;SDS011;66443;49.122;8.346;2023-07-13T04:46:10;3.27;;;2.20;;
77384;SDS011;66443;49.122;8.346;2023-07-13T04:48:36;4.80;;;2.30;;
77384;SDS011;66443;49.122;8.346;2023-07-13T04:51:01;7.17;;;3.00;;
77384;SDS011;66443;49.122;8.346;2023-07-13T04:53:27;3.77;;;2.37;;
77384;SDS011;66443;49.122;8.346;2023-07-13T04:55:52;4.40;;;2.20;;
77384;SDS011;66443;49.122;8.346;2023-07-13T04:58:17;5.07;;;2.37;;
77384;SDS011;66443;49.122;8.346;2023-07-13T05:00:43;3.83;;;2.33;;
77384;SDS011;66443;49.122;8.346;2023-07-13T05:03:08;5.03;;;2.07;;
77384;SDS011;66443;49.122;8.346;2023-07-13T05:05:33;5.13;;;2.33;;
77384;SDS011;66443;49.122;8.346;2023-07-13T05:07:59;3.53;;;2.60;;
77384;SDS011;66443;49.122;8.346;2023-07-13T05:10:24;3.13;;;2.40;;
77384;SDS011;66443;49.122;8.346;2023-07-13T05:12:49;4.93;;;2.60;;
77384;SDS011;66443;49.122;8.346;2023-07-13T05:15:15;4.17;;;2.10;;
77384;SDS011;66443;49.122;8.346;2023-07-13T05:17:40;4.40;;;2.50;;
77384;SDS011;66443;49.122;8.346;2023-07-13T05:20:06;2.67;;;1.97;;
77384;SDS011;66443;49.122;8.346;2023-07-13T05:22:31;2.27;;;2.10;;
77384;SDS011;66443;49.122;8.346;2023-07-13T05:24:57;3.37;;;2.10;;
77384;SDS011;66443;49.122;8.346;2023-07-13T05:27:22;3.00;;;1.90;;
77384;SDS011;66443;49.122;8.346;2023-07-13T05:29:48;2.33;;;1.77;;
77384;SDS011;66443;49.122;8.346;2023-07-13T05:32:13;3.17;;;2.30;;
77384;SDS011;66443;49.122;8.346;2023-07-13T05:34:38;2.37;;;1.73;;
77384;SDS011;66443;49.122;8.346;2023-07-13T05:37:04;1.90;;;1.80;;
77384;SDS011;66443;49.122;8.346;2023-07-13T05:39:29;2.90;;;1.67;;
77384;SDS011;66443;49.122;8.346;2023-07-13T05:41:54;2.23;;;1.80;;
77384;SDS011;66443;49.122;8.346;2023-07-13T05:44:19;8.53;;;2.30;;
77384;SDS011;66443;49.122;8.346;2023-07-13T05:46:45;4.67;;;2.03;;
77384;SDS011;66443;49.122;8.346;2023-07-13T05:49:10;3.43;;;2.40;;
77384;SDS011;66443;49.122;8.346;2023-07-13T05:51:35;2.13;;;1.90;;
77384;SDS011;66443;49.122;8.346;2023-07-13T05:54:01;26.60;;;4.73;;
77384;SDS011;66443;49.122;8.346;2023-07-13T05:56:26;5.73;;;3.80;;
77384;SDS011;66443;49.122;8.346;2023-07-13T05:58:51;1.70;;;1.60;;
77384;SDS011;66443;49.122;8.346;2023-07-13T06:01:17;5.80;;;1.83;;
77384;SDS011;66443;49.122;8.346;2023-07-13T06:03:42;2.87;;;1.80;;
77384;SDS011;66443;49.122;8.346;2023-07-13T06:06:08;1.80;;;1.70;;
77384;SDS011;66443;49.122;8.346;2023-07-13T06:08:34;3.63;;;2.03;;
77384;SDS011;66443;49.122;8.346;2023-07-13T06:11:03;1.60;;;1.50;;
77384;SDS011;66443;49.122;8.346;2023-07-13T06:13:28;3.20;;;1.93;;
77384;SDS011;66443;49.122;8.346;2023-07-13T06:15:53;2.57;;;1.77;;
77384;SDS011;66443;49.122;8.346;2023-07-13T06:18:18;3.73;;;1.60;;
77384;SDS011;66443;49.122;8.346;2023-07-13T06:20:43;2.27;;;1.20;;
77384;SDS011;66443;49.122;8.346;2023-07-13T06:23:09;2.93;;;1.60;;
77384;SDS011;66443;49.122;8.346;2023-07-13T06:25:34;2.53;;;2.20;;
77384;SDS011;66443;49.122;8.346;2023-07-13T06:27:59;2.90;;;2.17;;
77384;SDS011;66443;49.122;8.346;2023-07-13T06:30:24;2.43;;;1.70;;
77384;SDS011;66443;49.122;8.346;2023-07-13T06:32:49;2.80;;;1.70;;
77384;SDS011;66443;49.122;8.346;2023-07-13T06:35:15;3.80;;;2.13;;
77384;SDS011;66443;49.122;8.346;2023-07-13T06:37:40;2.37;;;1.60;;
77384;SDS011;66443;49.122;8.346;2023-07-13T06:40:05;5.37;;;1.93;;
77384;SDS011;66443;49.122;8.346;2023-07-13T06:42:31;2.77;;;1.93;;
77384;SDS011;66443;49.122;8.346;2023-07-13T06:44:56;4.87;;;1.80;;
77384;SDS011;66443;49.122;8.346;2023-07-13T06:47:21;2.87;;;1.70;;
77384;SDS011;66443;49.122;8.346;2023-07-13T06:49:46;10.33;;;2.40;;
77384;SDS011;66443;49.122;8.346;2023-07-13T06:52:11;4.20;;;2.13;;
77384;SDS011;66443;49.122;8.346;2023-07-13T06:54:36;5.23;;;2.03;;
77384;SDS011;66443;49.122;8.346;2023-07-13T06:57:02;2.47;;;1.80;;
77384;SDS011;66443;49.122;8.346;2023-07-13T06:59:27;2.10;;;1.47;;
77384;SDS011;66443;49.122;8.346;2023-07-13T07:01:52;1.90;;;1.67;;
77384;SDS011;66443;49.122;8.346;2023-07-13T07:04:17;1.53;;;1.40;;
77384;SDS011;66443;49.122;8.346;2023-07-13T07:06:42;4.03;;;1.83;;
77384;SDS011;66443;49.122;8.346;2023-07-13T07:09:07;3.97;;;1.73;;
77384;SDS011;66443;49.122;8.346;2023-07-13T07:11:34;4.00;;;1.50;;
77384;SDS011;66443;49.122;8.346;2023-07-13T07:13:59;1.70;;;1.57;;
77384;SDS011;66443;49.122;8.346;2023-07-13T07:16:24;3.50;;;1.43;;
77384;SDS011;66443;49.122;8.346;2023-07-13T07:18:49;4.20;;;1.60;;
77384;SDS011;66443;49.122;8.346;2023-07-13T07:21:14;1.83;;;1.60;;
77384;SDS011;66443;49.122;8.346;2023-07-13T07:23:40;6.17;;;1.67;;
77384;SDS011;66443;49.122;8.346;2023-07-13T07:26:05;1.93;;;1.50;;
77384;SDS011;66443;49.122;8.346;2023-07-13T07:28:30;9.80;;;1.87;;
77384;SDS011;66443;49.122;8.346;2023-07-13T07:30:56;2.03;;;1.50;;
77384;SDS011;66443;49.122;8.346;2023-07-13T07:33:22;1.50;;;1.30;;
77384;SDS011;66443;49.122;8.346;2023-07-13T07:35:47;1.50;;;1.40;;
77384;SDS011;66443;49.122;8.346;2023-07-13T07:38:12;1.93;;;1.10;;
77384;SDS011;66443;49.122;8.346;2023-07-13T07:40:40;2.43;;;1.40;;
77384;SDS011;66443;49.122;8.346;2023-07-13T07:43:06;6.30;;;1.47;;
77384;SDS011;66443;49.122;8.346;2023-07-13T07:45:32;5.60;;;1.43;;
77384;SDS011;66443;49.122;8.346;2023-07-13T07:47:57;3.53;;;1.60;;
77384;SDS011;66443;49.122;8.346;2023-07-13T07:50:24;1.90;;;1.40;;
77384;SDS011;66443;49.122;8.346;2023-07-13T07:52:49;5.00;;;1.73;;
77384;SDS011;66443;49.122;8.346;2023-07-13T07:55:14;2.80;;;1.40;;
77384;SDS011;66443;49.122;8.346;2023-07-13T07:57:39;1.77;;;1.30;;
77384;SDS011;66443;49.122;8.346;2023-07-13T08:00:05;5.27;;;2.10;;
77384;SDS011;66443;49.122;8.346;2023-07-13T08:02:30;3.17;;;1.00;;
77384;SDS011;66443;49.122;8.346;2023-07-13T08:04:55;3.83;;;1.33;;
77384;SDS011;66443;49.122;8.346;2023-07-13T08:07:20;3.23;;;1.73;;
77384;SDS011;66443;49.122;8.346;2023-07-13T08:09:46;2.92;;;1.30;;
77384;SDS011;66443;49.122;8.346;2023-07-13T08:12:12;1.63;;;1.23;;
77384;SDS011;66443;49.122;8.346;2023-07-13T08:14:37;3.50;;;1.30;;
77384;SDS011;66443;49.122;8.346;2023-07-13T08:17:03;3.15;;;1.65;;
77384;SDS011;66443;49.122;8.346;2023-07-13T08:19:29;1.30;;;1.20;;
77384;SDS011;66443;49.122;8.346;2023-07-13T08:21:54;4.47;;;1.60;;
77384;SDS011;66443;49.122;8.346;2023-07-13T08:24:21;1.88;;;1.30;;
77384;SDS011;66443;49.122;8.346;2023-07-13T08:26:46;4.30;;;1.67;;
77384;SDS011;66443;49.122;8.346;2023-07-13T08:29:12;2.05;;;1.17;;
77384;SDS011;66443;49.122;8.346;2023-07-13T08:31:37;1.85;;;1.40;;
77384;SDS011;66443;49.122;8.346;2023-07-13T08:34:02;2.40;;;1.08;;
77384;SDS011;66443;49.122;8.346;2023-07-13T08:36:28;27.50;;;2.97;;
77384;SDS011;66443;49.122;8.346;2023-07-13T08:38:53;2.25;;;1.17;;
77384;SDS011;66443;49.122;8.346;2023-07-13T08:41:19;3.53;;;1.20;;
77384;SDS011;66443;49.122;8.346;2023-07-13T08:43:49;1.13;;;1.05;;
77384;SDS011;66443;49.122;8.346;2023-07-13T08:46:19;1.73;;;1.08;;
77384;SDS011;66443;49.122;8.346;2023-07-13T08:48:49;1.73;;;1.00;;
77384;SDS011;66443;49.122;8.346;2023-07-13T08:53:46;1.38;;;1.00;;
77384;SDS011;66443;49.122;8.346;2023-07-13T08:56:17;9.73;;;1.30;;
77384;SDS011;66443;49.122;8.346;2023-07-13T08:58:43;2.28;;;1.10;;
77384;SDS011;66443;49.122;8.346;2023-07-13T09:01:21;2.42;;;1.00;;
77384;SDS011;66443;49.122;8.346;2023-07-13T09:06:33;1.35;;;1.17;;
77384;SDS011;66443;49.122;8.346;2023-07-13T09:09:01;4.10;;;1.40;;
77384;SDS011;66443;49.122;8.346;2023-07-13T09:12:03;1.60;;;1.15;;
77384;SDS011;66443;49.122;8.346;2023-07-13T09:17:18;1.35;;;1.20;;
77384;SDS011;66443;49.122;8.346;2023-07-13T09:19:45;2.55;;;1.30;;
77384;SDS011;66443;49.122;8.346;2023-07-13T09:22:13;2.22;;;1.20;;
77384;SDS011;66443;49.122;8.346;2023-07-13T09:24:45;1.58;;;1.10;;
77384;SDS011;66443;49.122;8.346;2023-07-13T09:27:17;2.97;;;1.27;;
77384;SDS011;66443;49.122;8.346;2023-07-13T09:29:48;6.63;;;1.48;;
77384;SDS011;66443;49.122;8.346;2023-07-13T09:32:15;1.88;;;1.15;;
77384;SDS011;66443;49.122;8.346;2023-07-13T09:34:42;3.10;;;1.45;;
77384;SDS011;66443;49.122;8.346;2023-07-13T09:37:07;2.70;;;1.30;;
77384;SDS011;66443;49.122;8.346;2023-07-13T09:39:36;3.53;;;1.48;;
77384;SDS011;66443;49.122;8.346;2023-07-13T09:46:58;2.33;;;1.40;;
77384;SDS011;66443;49.122;8.346;2023-07-13T09:49:26;3.40;;;1.35;;
77384;SDS011;66443;49.122;8.346;2023-07-13T09:51:59;2.45;;;1.30;;
77384;SDS011;66443;49.122;8.346;2023-07-13T09:54:25;1.73;;;1.15;;
77384;SDS011;66443;49.122;8.346;2023-07-13T09:57:33;2.42;;;1.23;;
77384;SDS011;66443;49.122;8.346;2023-07-13T09:59:46;2.58;;;1.10;;
77384;SDS011;66443;49.122;8.346;2023-07-13T10:02:31;2.83;;;1.70;;
77384;SDS011;66443;49.122;8.346;2023-07-13T10:05:05;3.08;;;1.30;;
77384;SDS011;66443;49.122;8.346;2023-07-13T10:07:31;3.63;;;1.50;;
77384;SDS011;66443;49.122;8.346;2023-07-13T10:09:58;1.58;;;1.20;;
77384;SDS011;66443;49.122;8.346;2023-07-13T10:12:23;2.28;;;1.00;;
77384;SDS011;66443;49.122;8.346;2023-07-13T10:14:50;6.55;;;1.60;;
77384;SDS011;66443;49.122;8.346;2023-07-13T10:17:16;1.85;;;1.20;;
77384;SDS011;66443;49.122;8.346;2023-07-13T10:19:44;2.22;;;1.50;;
77384;SDS011;66443;49.122;8.346;2023-07-13T10:22:12;1.92;;;1.38;;
77384;SDS011;66443;49.122;8.346;2023-07-13T10:24:39;2.97;;;1.20;;
77384;SDS011;66443;49.122;8.346;2023-07-13T10:27:16;1.50;;;1.13;;
77384;SDS011;66443;49.122;8.346;2023-07-13T10:30:27;1.52;;;1.42;;
77384;SDS011;66443;49.122;8.346;2023-07-13T10:32:27;3.65;;;1.35;;
77384;SDS011;66443;49.122;8.346;2023-07-13T10:34:52;2.08;;;1.10;;
77384;SDS011;66443;49.122;8.346;2023-07-13T10:37:28;0.80;;;0.80;;
77384;SDS011;66443;49.122;8.346;2023-07-13T10:39:55;3.60;;;1.20;;
77384;SDS011;66443;49.122;8.346;2023-07-13T10:42:32;2.42;;;1.05;;
77384;SDS011;66443;49.122;8.346;2023-07-13T10:44:58;2.22;;;1.20;;
77384;SDS011;66443;49.122;8.346;2023-07-13T10:47:23;4.27;;;1.50;;
77384;SDS011;66443;49.122;8.346;2023-07-13T10:49:49;1.58;;;1.10;;
77384;SDS011;66443;49.122;8.346;2023-07-13T10:55:00;2.00;;;1.33;;
77384;SDS011;66443;49.122;8.346;2023-07-13T10:57:28;1.67;;;1.10;;
77384;SDS011;66443;49.122;8.346;2023-07-13T11:02:28;3.83;;;1.42;;
77384;SDS011;66443;49.122;8.346;2023-07-13T11:04:54;5.22;;;1.33;;
77384;SDS011;66443;49.122;8.346;2023-07-13T11:07:27;4.57;;;1.48;;
77384;SDS011;66443;49.122;8.346;2023-07-13T11:09:53;1.88;;;1.30;;
77384;SDS011;66443;49.122;8.346;2023-07-13T11:17:46;2.80;;;1.20;;
77384;SDS011;66443;49.122;8.346;2023-07-13T11:22:45;2.70;;;1.10;;
77384;SDS011;66443;49.122;8.346;2023-07-13T11:25:31;1.98;;;1.52;;
77384;SDS011;66443;49.122;8.346;2023-07-13T11:28:04;2.83;;;1.50;;
77384;SDS011;66443;49.122;8.346;2023-07-13T11:30:32;3.15;;;1.20;;
77384;SDS011;66443;49.122;8.346;2023-07-13T11:33:16;4.68;;;1.30;;
77384;SDS011;66443;49.122;8.346;2023-07-13T11:35:53;3.90;;;1.50;;
77384;SDS011;66443;49.122;8.346;2023-07-13T11:38:36;4.60;;;1.55;;
77384;SDS011;66443;49.122;8.346;2023-07-13T11:43:48;2.33;;;1.13;;
77384;SDS011;66443;49.122;8.346;2023-07-13T11:46:24;2.85;;;1.30;;
77384;SDS011;66443;49.122;8.346;2023-07-13T11:48:50;1.95;;;1.20;;
77384;SDS011;66443;49.122;8.346;2023-07-13T11:51:26;1.52;;;1.10;;
77384;SDS011;66443;49.122;8.346;2023-07-13T11:53:54;3.35;;;1.05;;
77384;SDS011;66443;49.122;8.346;2023-07-13T11:56:19;3.00;;;1.20;;
77384;SDS011;66443;49.122;8.346;2023-07-13T11:58:47;2.15;;;1.10;;
77384;SDS011;66443;49.122;8.346;2023-07-13T12:01:17;2.85;;;1.27;;
77384;SDS011;66443;49.122;8.346;2023-07-13T12:03:43;2.38;;;1.20;;
77384;SDS011;66443;49.122;8.346;2023-07-13T12:06:30;3.03;;;1.35;;
77384;SDS011;66443;49.122;8.346;2023-07-13T12:08:57;1.77;;;1.35;;
77384;SDS011;66443;49.122;8.346;2023-07-13T12:11:23;1.35;;;0.93;;
77384;SDS011;66443;49.122;8.346;2023-07-13T12:13:48;6.20;;;1.17;;
77384;SDS011;66443;49.122;8.346;2023-07-13T12:18:45;4.47;;;1.48;;
77384;SDS011;66443;49.122;8.346;2023-07-13T12:21:14;4.95;;;1.38;;
77384;SDS011;66443;49.122;8.346;2023-07-13T12:23:42;18.75;;;2.65;;
77384;SDS011;66443;49.122;8.346;2023-07-13T12:26:08;3.47;;;1.25;;
77384;SDS011;66443;49.122;8.346;2023-07-13T12:28:37;4.10;;;1.08;;
77384;SDS011;66443;49.122;8.346;2023-07-13T12:31:05;1.35;;;1.02;;
77384;SDS011;66443;49.122;8.346;2023-07-13T12:33:32;7.05;;;1.25;;
77384;SDS011;66443;49.122;8.346;2023-07-13T12:35:57;2.60;;;1.00;;
77384;SDS011;66443;49.122;8.346;2023-07-13T12:38:25;3.90;;;1.10;;
77384;SDS011;66443;49.122;8.346;2023-07-13T12:40:51;5.95;;;1.27;;
77384;SDS011;66443;49.122;8.346;2023-07-13T12:43:17;3.75;;;1.30;;
77384;SDS011;66443;49.122;8.346;2023-07-13T12:45:57;2.92;;;1.05;;
77384;SDS011;66443;49.122;8.346;2023-07-13T12:48:23;2.53;;;1.30;;
77384;SDS011;66443;49.122;8.346;2023-07-13T12:50:49;1.40;;;1.15;;
77384;SDS011;66443;49.122;8.346;2023-07-13T12:53:16;1.15;;;0.98;;
77384;SDS011;66443;49.122;8.346;2023-07-13T12:55:52;3.45;;;1.10;;
77384;SDS011;66443;49.122;8.346;2023-07-13T12:58:21;3.15;;;1.10;;
77384;SDS011;66443;49.122;8.346;2023-07-13T13:00:48;5.15;;;1.38;;
77384;SDS011;66443;49.122;8.346;2023-07-13T13:03:35;1.85;;;0.90;;
77384;SDS011;66443;49.122;8.346;2023-07-13T13:06:02;1.92;;;0.93;;
77384;SDS011;66443;49.122;8.346;2023-07-13T13:08:28;4.40;;;1.33;;
77384;SDS011;66443;49.122;8.346;2023-07-13T13:20:31;4.38;;;1.15;;
77384;SDS011;66443;49.122;8.346;2023-07-13T13:29:27;1.83;;;0.90;;
77384;SDS011;66443;49.122;8.346;2023-07-13T13:31:57;4.00;;;1.33;;
77384;SDS011;66443;49.122;8.346;2023-07-13T13:37:29;2.70;;;0.90;;
77384;SDS011;66443;49.122;8.346;2023-07-13T13:42:32;0.95;;;0.90;;
77384;SDS011;66443;49.122;8.346;2023-07-13T13:44:58;1.52;;;1.15;;
77384;SDS011;66443;49.122;8.346;2023-07-13T13:47:30;2.13;;;0.88;;
77384;SDS011;66443;49.122;8.346;2023-07-13T13:49:59;0.90;;;0.90;;
77384;SDS011;66443;49.122;8.346;2023-07-13T13:52:26;1.40;;;0.98;;
77384;SDS011;66443;49.122;8.346;2023-07-13T13:54:52;1.40;;;0.90;;
77384;SDS011;66443;49.122;8.346;2023-07-13T13:57:22;4.07;;;1.10;;
77384;SDS011;66443;49.122;8.346;2023-07-13T13:59:48;3.25;;;1.02;;
77384;SDS011;66443;49.122;8.346;2023-07-13T14:02:31;1.35;;;0.95;;
77384;SDS011;66443;49.122;8.346;2023-07-13T14:04:58;2.33;;;1.38;;
77384;SDS011;66443;49.122;8.346;2023-07-13T14:07:24;1.08;;;0.88;;
77384;SDS011;66443;49.122;8.346;2023-07-13T14:09:49;5.63;;;1.15;;
77384;SDS011;66443;49.122;8.346;2023-07-13T14:12:15;2.58;;;0.98;;
77384;SDS011;66443;49.122;8.346;2023-07-13T14:14:40;1.63;;;1.00;;
77384;SDS011;66443;49.122;8.346;2023-07-13T14:17:11;7.00;;;1.30;;
77384;SDS011;66443;49.122;8.346;2023-07-13T14:19:42;2.47;;;1.05;;
77384;SDS011;66443;49.122;8.346;2023-07-13T14:22:07;3.42;;;1.73;;
77384;SDS011;66443;49.122;8.346;2023-07-13T14:24:32;1.43;;;0.77;;
77384;SDS011;66443;49.122;8.346;2023-07-13T14:26:58;0.97;;;0.70;;
77384;SDS011;66443;49.122;8.346;2023-07-13T14:29:23;1.95;;;1.00;;
77384;SDS011;66443;49.122;8.346;2023-07-13T14:31:48;1.27;;;0.90;;
77384;SDS011;66443;49.122;8.346;2023-07-13T14:34:13;1.75;;;1.00;;
77384;SDS011;66443;49.122;8.346;2023-07-13T14:36:43;1.75;;;0.98;;
77384;SDS011;66443;49.122;8.346;2023-07-13T14:39:14;3.42;;;1.35;;
77384;SDS011;66443;49.122;8.346;2023-07-13T14:41:39;1.55;;;1.02;;
77384;SDS011;66443;49.122;8.346;2023-07-13T14:44:11;1.38;;;1.10;;
77384;SDS011;66443;49.122;8.346;2023-07-13T14:46:37;3.63;;;0.88;;
77384;SDS011;66443;49.122;8.346;2023-07-13T14:49:45;2.05;;;1.13;;
77384;SDS011;66443;49.122;8.346;2023-07-13T14:51:51;1.00;;;1.00;;
77384;SDS011;66443;49.122;8.346;2023-07-13T14:54:17;3.13;;;1.20;;
77384;SDS011;66443;49.122;8.346;2023-07-13T14:56:42;1.48;;;0.90;;
77384;SDS011;66443;49.122;8.346;2023-07-13T14:59:07;2.00;;;0.80;;
77384;SDS011;66443;49.122;8.346;2023-07-13T15:01:33;3.00;;;1.13;;
77384;SDS011;66443;49.122;8.346;2023-07-13T15:03:59;2.80;;;1.10;;
77384;SDS011;66443;49.122;8.346;2023-07-13T15:06:24;0.90;;;0.88;;
77384;SDS011;66443;49.122;8.346;2023-07-13T15:08:49;1.08;;;0.98;;
77384;SDS011;66443;49.122;8.346;2023-07-13T15:11:15;2.00;;;1.10;;
77384;SDS011;66443;49.122;8.346;2023-07-13T15:13:41;1.95;;;1.02;;
77384;SDS011;66443;49.122;8.346;2023-07-13T15:16:18;2.20;;;1.10;;
77384;SDS011;66443;49.122;8.346;2023-07-13T15:18:46;2.80;;;0.93;;
77384;SDS011;66443;49.122;8.346;2023-07-13T15:21:13;2.05;;;1.00;;
77384;SDS011;66443;49.122;8.346;2023-07-13T15:23:39;2.00;;;0.90;;
77384;SDS011;66443;49.122;8.346;2023-07-13T15:26:04;3.60;;;1.23;;
77384;SDS011;66443;49.122;8.346;2023-07-13T15:28:32;2.03;;;0.93;;
77384;SDS011;66443;49.122;8.346;2023-07-13T15:30:57;7.20;;;1.37;;
77384;SDS011;66443;49.122;8.346;2023-07-13T15:33:24;2.28;;;0.90;;
77384;SDS011;66443;49.122;8.346;2023-07-13T15:35:50;1.05;;;0.98;;
77384;SDS011;66443;49.122;8.346;2023-07-13T15:38:17;3.20;;;1.30;;
77384;SDS011;66443;49.122;8.346;2023-07-13T15:40:43;1.20;;;0.80;;
77384;SDS011;66443;49.122;8.346;2023-07-13T15:43:11;3.75;;;1.13;;